PDT,Max TemperatureF,Mean TemperatureF,Min TemperatureF,Max Dew PointF,MeanDew PointF,Min DewpointF,Max Humidity, Mean Humidity, Min Humidity, Max Sea Level PressureIn, Mean Sea Level PressureIn, Min Sea Level PressureIn, Max VisibilityMiles, Mean VisibilityMiles, Min VisibilityMiles, Max Wind SpeedMPH, Mean Wind SpeedMPH, Max Gust SpeedMPH,PrecipitationIn, CloudCover, Events, WindDirDegrees
2013-5-1,90,70,49,46,25,10,59,33,7,30.07,29.95,29.85,10,9,8,29,8,36,0.00,0,,39
2013-5-2,91,67,42,43,35,22,92,51,9,30.13,30.08,30.05,9,8,7,13,3,17,0.00,0,,208
2013-5-3,91,68,44,48,41,33,83,49,15,30.05,29.91,29.78,8,7,6,14,4,16,0.00,0,,197
2013-5-4,89,67,44,50,46,36,92,55,17,29.76,29.64,29.55,8,7,6,18,5,24,0.00,1,,206
2013-5-5,64,60,55,50,48,47,83,72,60,29.75,29.68,29.62,9,8,7,23,6,28,T,8,,186
2013-5-6,71,60,48,51,49,46,93,69,44,29.96,29.88,29.84,10,8,7,14,5,18,0.00,6,,295
2013-5-7,72,61,49,53,49,44,96,68,40,30.04,29.99,29.96,10,8,6,15,5,20,0.00,6,,214
2013-5-8,67,59,50,52,49,47,96,77,58,30.13,30.08,30.03,10,8,6,15,5,18,0.00,6,,157
2013-5-9,72,60,47,52,49,46,93,71,49,30.16,30.11,30.05,8,7,2,15,6,18,0.00,3,,155
2013-5-10,76,63,49,55,51,48,89,69,49,30.17,30.12,30.07,8,7,5,15,5,20,0.00,3,,160
2013-5-11,85,66,47,57,50,46,100,70,40,30.13,30.09,30.02,10,4,0,14,5,16,0.00,3,Fog,151
2013-5-12,83,65,47,60,50,46,100,72,43,30.14,30.08,29.99,10,4,0,16,5,20,0.00,3,Fog,158
2013-5-13,86,68,49,60,50,46,100,67,33,30.08,30.01,29.91,10,4,0,18,5,25,0.00,3,Fog,177
2013-5-14,89,68,47,52,47,35,86,51,16,29.96,29.90,29.84,10,8,7,20,5,28,0.00,0,,181
2013-5-15,84,64,43,48,44,41,92,58,23,30.01,29.97,29.94,10,9,6,21,5,28,0.00,2,,332
2013-5-16,75,63,51,51,48,45,83,62,41,29.99,29.95,29.90,10,10,10,23,7,26,0.00,3,,239
2013-5-17,73,58,43,46,44,41,93,64,35,30.05,29.98,29.95,10,10,8,16,5,21,0.00,1,,177
2013-5-18,84,63,41,48,44,40,93,59,24,30.10,30.07,30.04,10,10,9,24,7,30,0.00,0,,305
2013-5-19,87,70,52,49,43,35,77,47,17,30.11,30.03,29.95,10,10,10,15,7,22,0.00,0,,318
2013-5-20,90,70,50,50,43,33,86,50,14,29.98,29.94,29.88,10,10,7,13,7,,0.00,0,,264
2013-5-21,76,61,46,46,41,34,93,60,27,29.98,29.93,29.89,10,9,6,25,14,35,0.00,0,,319
2013-5-22,72,58,43,39,32,25,63,41,18,30.02,29.95,29.87,10,10,10,29,14,38,0.00,0,,323
2013-5-23,73,59,45,40,38,35,71,49,27,29.99,29.94,29.89,10,10,9,18,8,22,0.00,1,,313
2013-5-24,77,58,39,43,40,35,89,57,25,29.98,29.94,29.88,10,10,8,14,4,17,0.00,0,,198
2013-5-25,76,59,42,47,43,40,92,63,33,30.01,29.95,29.92,10,9,6,17,5,24,0.00,0,,164
2013-5-26,75,62,48,50,47,45,86,61,36,30.09,30.04,30.01,10,10,8,22,8,28,0.00,2,,249
2013-5-27,64,56,47,55,52,44,100,81,62,30.09,30.05,29.99,10,6,3,14,4,17,0.16,6,Rain,197
2013-5-28,75,65,55,56,54,50,100,73,46,29.99,29.95,29.89,10,7,2,14,4,17,0.01,6,Rain,184
2013-5-29,80,68,56,54,49,37,83,52,21,29.95,29.90,29.85,10,8,4,20,6,25,T,4,Rain,250
2013-5-30,85,64,42,46,41,31,93,54,14,29.96,29.93,29.88,10,7,2,21,6,25,0.00,0,,344
2013-5-31,93,70,47,52,46,41,86,52,18,29.99,29.94,29.87,10,8,4,16,6,22,0.00,0,,267